sensor_id;sensor_type;location;lat;lon;timestamp;P1;durP1;ratioP1;P2;durP2;ratioP2
20034;SDS011;10178;48.034;9.800;2024-01-25T00:02:06;6.82;;;1.73;;
20034;SDS011;10178;48.034;9.800;2024-01-25T00:04:31;11.77;;;2.03;;
20034;SDS011;10178;48.034;9.800;2024-01-25T00:06:57;7.57;;;1.58;;
20034;SDS011;10178;48.034;9.800;2024-01-25T00:09:23;9.25;;;1.73;;
20034;SDS011;10178;48.034;9.800;2024-01-25T00:11:48;3.63;;;1.42;;
20034;SDS011;10178;48.034;9.800;2024-01-25T00:14:14;7.32;;;1.40;;
20034;SDS011;10178;48.034;9.800;2024-01-25T00:16:40;9.27;;;1.52;;
20034;SDS011;10178;48.034;9.800;2024-01-25T00:19:06;8.77;;;2.15;;
20034;SDS011;10178;48.034;9.800;2024-01-25T00:21:32;5.57;;;1.25;;
20034;SDS011;10178;48.034;9.800;2024-01-25T00:23:58;4.38;;;1.10;;
20034;SDS011;10178;48.034;9.800;2024-01-25T00:26:24;9.25;;;1.52;;
20034;SDS011;10178;48.034;9.800;2024-01-25T00:28:49;7.55;;;1.38;;
20034;SDS011;10178;48.034;9.800;2024-01-25T00:31:15;7.70;;;1.63;;
20034;SDS011;10178;48.034;9.800;2024-01-25T00:33:41;5.68;;;1.42;;
20034;SDS011;10178;48.034;9.800;2024-01-25T00:36:06;13.13;;;3.22;;
20034;SDS011;10178;48.034;9.800;2024-01-25T00:38:33;5.95;;;1.20;;
20034;SDS011;10178;48.034;9.800;2024-01-25T00:40:59;8.38;;;1.48;;
20034;SDS011;10178;48.034;9.800;2024-01-25T00:43:25;4.07;;;1.35;;
20034;SDS011;10178;48.034;9.800;2024-01-25T00:45:51;5.93;;;1.33;;
20034;SDS011;10178;48.034;9.800;2024-01-25T00:48:17;4.03;;;1.13;;
20034;SDS011;10178;48.034;9.800;2024-01-25T00:50:43;10.40;;;1.65;;
20034;SDS011;10178;48.034;9.800;2024-01-25T00:53:09;5.53;;;1.20;;
20034;SDS011;10178;48.034;9.800;2024-01-25T00:55:35;8.38;;;1.58;;
20034;SDS011;10178;48.034;9.800;2024-01-25T00:58:00;2.80;;;1.02;;
20034;SDS011;10178;48.034;9.800;2024-01-25T01:00:27;7.25;;;1.73;;
20034;SDS011;10178;48.034;9.800;2024-01-25T01:02:53;7.25;;;1.33;;
20034;SDS011;10178;48.034;9.800;2024-01-25T01:05:19;4.38;;;1.23;;
20034;SDS011;10178;48.034;9.800;2024-01-25T01:07:45;7.78;;;1.40;;
20034;SDS011;10178;48.034;9.800;2024-01-25T01:10:11;5.90;;;1.25;;
20034;SDS011;10178;48.034;9.800;2024-01-25T01:12:39;9.00;;;1.60;;
20034;SDS011;10178;48.034;9.800;2024-01-25T01:15:04;5.60;;;1.42;;
20034;SDS011;10178;48.034;9.800;2024-01-25T01:17:30;8.30;;;1.38;;
20034;SDS011;10178;48.034;9.800;2024-01-25T01:19:56;5.43;;;1.60;;
20034;SDS011;10178;48.034;9.800;2024-01-25T01:22:22;8.88;;;1.48;;
20034;SDS011;10178;48.034;9.800;2024-01-25T01:24:47;7.97;;;1.80;;
20034;SDS011;10178;48.034;9.800;2024-01-25T01:27:13;8.15;;;1.42;;
20034;SDS011;10178;48.034;9.800;2024-01-25T01:29:39;7.53;;;1.38;;
20034;SDS011;10178;48.034;9.800;2024-01-25T01:32:04;5.55;;;1.42;;
20034;SDS011;10178;48.034;9.800;2024-01-25T01:34:30;5.50;;;1.48;;
20034;SDS011;10178;48.034;9.800;2024-01-25T01:36:56;6.13;;;1.35;;
20034;SDS011;10178;48.034;9.800;2024-01-25T01:39:22;8.00;;;1.30;;
20034;SDS011;10178;48.034;9.800;2024-01-25T01:41:48;8.05;;;1.50;;
20034;SDS011;10178;48.034;9.800;2024-01-25T01:44:14;6.38;;;1.52;;
20034;SDS011;10178;48.034;9.800;2024-01-25T01:46:39;7.07;;;1.45;;
20034;SDS011;10178;48.034;9.800;2024-01-25T01:49:07;5.75;;;1.42;;
20034;SDS011;10178;48.034;9.800;2024-01-25T01:51:36;5.38;;;1.42;;
20034;SDS011;10178;48.034;9.800;2024-01-25T01:54:03;6.68;;;1.40;;
20034;SDS011;10178;48.034;9.800;2024-01-25T01:56:31;7.78;;;1.50;;
20034;SDS011;10178;48.034;9.800;2024-01-25T01:58:58;4.97;;;1.35;;
20034;SDS011;10178;48.034;9.800;2024-01-25T02:01:28;5.53;;;1.25;;
20034;SDS011;10178;48.034;9.800;2024-01-25T02:03:54;6.47;;;1.42;;
20034;SDS011;10178;48.034;9.800;2024-01-25T02:06:23;1.55;;;0.90;;
20034;SDS011;10178;48.034;9.800;2024-01-25T02:08:49;8.20;;;1.90;;
20034;SDS011;10178;48.034;9.800;2024-01-25T02:11:16;11.32;;;1.63;;
20034;SDS011;10178;48.034;9.800;2024-01-25T02:13:42;3.55;;;1.25;;
20034;SDS011;10178;48.034;9.800;2024-01-25T02:16:09;3.22;;;1.13;;
20034;SDS011;10178;48.034;9.800;2024-01-25T02:18:34;5.38;;;1.50;;
20034;SDS011;10178;48.034;9.800;2024-01-25T02:21:00;4.63;;;1.30;;
20034;SDS011;10178;48.034;9.800;2024-01-25T02:23:26;4.10;;;1.35;;
20034;SDS011;10178;48.034;9.800;2024-01-25T02:25:52;6.43;;;1.20;;
20034;SDS011;10178;48.034;9.800;2024-01-25T02:28:18;5.43;;;1.15;;
20034;SDS011;10178;48.034;9.800;2024-01-25T02:30:44;9.35;;;1.40;;
20034;SDS011;10178;48.034;9.800;2024-01-25T02:33:09;7.18;;;1.50;;
20034;SDS011;10178;48.034;9.800;2024-01-25T02:35:35;4.97;;;1.05;;
20034;SDS011;10178;48.034;9.800;2024-01-25T02:38:01;7.18;;;1.25;;
20034;SDS011;10178;48.034;9.800;2024-01-25T02:40:27;10.93;;;1.83;;
20034;SDS011;10178;48.034;9.800;2024-01-25T02:42:53;2.60;;;1.13;;
20034;SDS011;10178;48.034;9.800;2024-01-25T02:45:18;6.53;;;1.40;;
20034;SDS011;10178;48.034;9.800;2024-01-25T02:47:44;3.92;;;1.02;;
20034;SDS011;10178;48.034;9.800;2024-01-25T02:50:10;7.47;;;1.25;;
20034;SDS011;10178;48.034;9.800;2024-01-25T02:52:35;6.13;;;1.30;;
20034;SDS011;10178;48.034;9.800;2024-01-25T02:55:01;5.38;;;1.10;;
20034;SDS011;10178;48.034;9.800;2024-01-25T02:57:41;6.53;;;1.17;;
20034;SDS011;10178;48.034;9.800;2024-01-25T03:00:06;3.22;;;1.08;;
20034;SDS011;10178;48.034;9.800;2024-01-25T03:02:33;3.28;;;1.02;;
20034;SDS011;10178;48.034;9.800;2024-01-25T03:04:59;3.03;;;0.93;;
20034;SDS011;10178;48.034;9.800;2024-01-25T03:07:25;3.83;;;1.23;;
20034;SDS011;10178;48.034;9.800;2024-01-25T03:09:50;3.33;;;0.90;;
20034;SDS011;10178;48.034;9.800;2024-01-25T03:12:16;3.30;;;1.00;;
20034;SDS011;10178;48.034;9.800;2024-01-25T03:14:41;1.85;;;0.90;;
20034;SDS011;10178;48.034;9.800;2024-01-25T03:17:07;3.60;;;1.10;;
20034;SDS011;10178;48.034;9.800;2024-01-25T03:19:33;5.93;;;1.30;;
20034;SDS011;10178;48.034;9.800;2024-01-25T03:21:59;1.90;;;0.90;;
20034;SDS011;10178;48.034;9.800;2024-01-25T03:24:26;3.80;;;1.27;;
20034;SDS011;10178;48.034;9.800;2024-01-25T03:26:52;4.32;;;0.80;;
20034;SDS011;10178;48.034;9.800;2024-01-25T03:29:17;2.42;;;1.00;;
20034;SDS011;10178;48.034;9.800;2024-01-25T03:31:43;2.80;;;0.80;;
20034;SDS011;10178;48.034;9.800;2024-01-25T03:34:09;3.22;;;0.88;;
20034;SDS011;10178;48.034;9.800;2024-01-25T03:36:34;3.03;;;0.90;;
20034;SDS011;10178;48.034;9.800;2024-01-25T03:39:01;3.28;;;1.15;;
20034;SDS011;10178;48.034;9.800;2024-01-25T03:41:27;2.45;;;0.82;;
20034;SDS011;10178;48.034;9.800;2024-01-25T03:43:54;2.47;;;0.80;;
20034;SDS011;10178;48.034;9.800;2024-01-25T03:46:20;3.10;;;0.95;;
20034;SDS011;10178;48.034;9.800;2024-01-25T03:48:45;3.60;;;0.82;;
20034;SDS011;10178;48.034;9.800;2024-01-25T03:51:11;5.45;;;0.88;;
20034;SDS011;10178;48.034;9.800;2024-01-25T03:53:36;4.13;;;1.20;;
20034;SDS011;10178;48.034;9.800;2024-01-25T03:56:02;1.17;;;0.93;;
20034;SDS011;10178;48.034;9.800;2024-01-25T03:58:28;2.33;;;0.95;;
20034;SDS011;10178;48.034;9.800;2024-01-25T04:00:54;3.35;;;1.00;;
20034;SDS011;10178;48.034;9.800;2024-01-25T04:03:19;3.20;;;0.70;;
20034;SDS011;10178;48.034;9.800;2024-01-25T04:05:45;3.75;;;1.10;;
20034;SDS011;10178;48.034;9.800;2024-01-25T04:08:10;3.15;;;0.93;;
20034;SDS011;10178;48.034;9.800;2024-01-25T04:10:36;5.13;;;1.27;;
20034;SDS011;10178;48.034;9.800;2024-01-25T04:13:02;3.00;;;0.90;;
20034;SDS011;10178;48.034;9.800;2024-01-25T04:15:29;3.78;;;1.00;;
20034;SDS011;10178;48.034;9.800;2024-01-25T04:20:42;3.50;;;1.10;;
20034;SDS011;10178;48.034;9.800;2024-01-25T04:23:09;3.38;;;0.90;;
20034;SDS011;10178;48.034;9.800;2024-01-25T04:25:37;4.53;;;0.82;;
20034;SDS011;10178;48.034;9.800;2024-01-25T04:28:03;5.05;;;0.95;;
20034;SDS011;10178;48.034;9.800;2024-01-25T04:30:29;3.30;;;0.70;;
20034;SDS011;10178;48.034;9.800;2024-01-25T04:32:56;2.15;;;0.82;;
20034;SDS011;10178;48.034;9.800;2024-01-25T04:35:21;2.13;;;0.85;;
20034;SDS011;10178;48.034;9.800;2024-01-25T04:37:47;1.65;;;0.60;;
20034;SDS011;10178;48.034;9.800;2024-01-25T04:40:12;5.70;;;0.85;;
20034;SDS011;10178;48.034;9.800;2024-01-25T04:42:38;3.95;;;1.20;;
20034;SDS011;10178;48.034;9.800;2024-01-25T04:45:04;2.63;;;0.88;;
20034;SDS011;10178;48.034;9.800;2024-01-25T04:47:30;2.20;;;0.60;;
20034;SDS011;10178;48.034;9.800;2024-01-25T04:49:56;4.88;;;0.93;;
20034;SDS011;10178;48.034;9.800;2024-01-25T04:52:21;3.75;;;0.80;;
20034;SDS011;10178;48.034;9.800;2024-01-25T04:54:47;2.42;;;0.90;;
20034;SDS011;10178;48.034;9.800;2024-01-25T04:57:12;4.38;;;0.70;;
20034;SDS011;10178;48.034;9.800;2024-01-25T04:59:41;2.65;;;0.70;;
20034;SDS011;10178;48.034;9.800;2024-01-25T05:02:07;2.22;;;0.68;;
20034;SDS011;10178;48.034;9.800;2024-01-25T05:04:33;2.10;;;0.70;;
20034;SDS011;10178;48.034;9.800;2024-01-25T05:07:00;3.90;;;0.95;;
20034;SDS011;10178;48.034;9.800;2024-01-25T05:09:26;3.40;;;0.70;;
20034;SDS011;10178;48.034;9.800;2024-01-25T05:11:52;2.50;;;0.90;;
20034;SDS011;10178;48.034;9.800;2024-01-25T05:14:23;3.58;;;1.10;;
20034;SDS011;10178;48.034;9.800;2024-01-25T05:16:49;3.42;;;0.90;;
20034;SDS011;10178;48.034;9.800;2024-01-25T05:19:15;3.17;;;0.82;;
20034;SDS011;10178;48.034;9.800;2024-01-25T05:21:42;2.53;;;0.80;;
20034;SDS011;10178;48.034;9.800;2024-01-25T05:24:08;2.88;;;0.73;;
20034;SDS011;10178;48.034;9.800;2024-01-25T05:26:35;3.22;;;0.70;;
20034;SDS011;10178;48.034;9.800;2024-01-25T05:29:00;5.07;;;0.80;;
20034;SDS011;10178;48.034;9.800;2024-01-25T05:31:26;2.83;;;0.80;;
20034;SDS011;10178;48.034;9.800;2024-01-25T05:33:52;1.77;;;0.63;;
20034;SDS011;10178;48.034;9.800;2024-01-25T05:36:19;4.03;;;1.08;;
20034;SDS011;10178;48.034;9.800;2024-01-25T05:38:45;2.40;;;0.50;;
20034;SDS011;10178;48.034;9.800;2024-01-25T05:41:11;1.63;;;0.82;;
20034;SDS011;10178;48.034;9.800;2024-01-25T05:43:43;2.53;;;0.77;;
20034;SDS011;10178;48.034;9.800;2024-01-25T05:46:09;2.00;;;0.60;;
20034;SDS011;10178;48.034;9.800;2024-01-25T05:48:35;2.25;;;1.15;;
20034;SDS011;10178;48.034;9.800;2024-01-25T05:51:04;2.13;;;0.60;;
20034;SDS011;10178;48.034;9.800;2024-01-25T05:53:30;1.38;;;0.63;;
20034;SDS011;10178;48.034;9.800;2024-01-25T05:55:56;3.40;;;0.68;;
20034;SDS011;10178;48.034;9.800;2024-01-25T05:58:22;2.45;;;0.52;;
20034;SDS011;10178;48.034;9.800;2024-01-25T06:00:48;1.58;;;0.52;;
20034;SDS011;10178;48.034;9.800;2024-01-25T06:03:14;2.08;;;0.73;;
20034;SDS011;10178;48.034;9.800;2024-01-25T06:05:40;2.75;;;0.52;;
20034;SDS011;10178;48.034;9.800;2024-01-25T06:08:06;2.83;;;0.90;;
20034;SDS011;10178;48.034;9.800;2024-01-25T06:10:35;2.30;;;1.05;;
20034;SDS011;10178;48.034;9.800;2024-01-25T06:13:02;0.82;;;0.50;;
20034;SDS011;10178;48.034;9.800;2024-01-25T06:15:27;5.82;;;0.73;;
20034;SDS011;10178;48.034;9.800;2024-01-25T06:17:53;2.97;;;0.70;;
20034;SDS011;10178;48.034;9.800;2024-01-25T06:20:19;2.20;;;0.82;;
20034;SDS011;10178;48.034;9.800;2024-01-25T06:22:46;1.80;;;0.60;;
20034;SDS011;10178;48.034;9.800;2024-01-25T06:25:12;1.73;;;0.68;;
20034;SDS011;10178;48.034;9.800;2024-01-25T06:27:38;2.20;;;0.80;;
20034;SDS011;10178;48.034;9.800;2024-01-25T06:30:04;2.35;;;0.75;;
20034;SDS011;10178;48.034;9.800;2024-01-25T06:32:30;2.90;;;0.80;;
20034;SDS011;10178;48.034;9.800;2024-01-25T06:34:56;2.15;;;0.60;;
20034;SDS011;10178;48.034;9.800;2024-01-25T06:37:22;3.50;;;0.65;;
20034;SDS011;10178;48.034;9.800;2024-01-25T06:39:48;2.53;;;0.60;;
20034;SDS011;10178;48.034;9.800;2024-01-25T06:42:13;3.55;;;0.70;;
20034;SDS011;10178;48.034;9.800;2024-01-25T06:44:40;3.13;;;0.80;;
20034;SDS011;10178;48.034;9.800;2024-01-25T06:47:10;2.15;;;0.52;;
20034;SDS011;10178;48.034;9.800;2024-01-25T06:49:36;1.65;;;0.55;;
20034;SDS011;10178;48.034;9.800;2024-01-25T06:52:01;3.40;;;1.10;;
20034;SDS011;10178;48.034;9.800;2024-01-25T06:54:28;1.65;;;0.90;;
20034;SDS011;10178;48.034;9.800;2024-01-25T06:56:54;2.15;;;0.90;;
20034;SDS011;10178;48.034;9.800;2024-01-25T06:59:23;1.52;;;0.70;;
20034;SDS011;10178;48.034;9.800;2024-01-25T07:01:49;2.20;;;0.60;;
20034;SDS011;10178;48.034;9.800;2024-01-25T07:04:14;1.73;;;0.60;;
20034;SDS011;10178;48.034;9.800;2024-01-25T07:06:40;2.85;;;0.68;;
20034;SDS011;10178;48.034;9.800;2024-01-25T07:09:06;3.60;;;0.80;;
20034;SDS011;10178;48.034;9.800;2024-01-25T07:11:32;4.10;;;1.05;;
20034;SDS011;10178;48.034;9.800;2024-01-25T07:13:58;2.15;;;0.85;;
20034;SDS011;10178;48.034;9.800;2024-01-25T07:16:23;1.92;;;0.80;;
20034;SDS011;10178;48.034;9.800;2024-01-25T07:18:49;0.70;;;0.52;;
20034;SDS011;10178;48.034;9.800;2024-01-25T07:21:15;1.48;;;0.70;;
20034;SDS011;10178;48.034;9.800;2024-01-25T07:23:40;1.20;;;0.57;;
20034;SDS011;10178;48.034;9.800;2024-01-25T07:26:06;1.73;;;0.77;;
20034;SDS011;10178;48.034;9.800;2024-01-25T07:28:32;1.67;;;0.63;;
20034;SDS011;10178;48.034;9.800;2024-01-25T07:30:58;1.10;;;0.60;;
20034;SDS011;10178;48.034;9.800;2024-01-25T07:33:23;1.27;;;0.43;;
20034;SDS011;10178;48.034;9.800;2024-01-25T07:35:50;2.00;;;0.45;;
20034;SDS011;10178;48.034;9.800;2024-01-25T07:38:15;2.37;;;0.67;;
20034;SDS011;10178;48.034;9.800;2024-01-25T07:40:41;2.28;;;0.70;;
20034;SDS011;10178;48.034;9.800;2024-01-25T07:43:07;1.95;;;0.80;;
20034;SDS011;10178;48.034;9.800;2024-01-25T07:45:33;1.92;;;0.60;;
20034;SDS011;10178;48.034;9.800;2024-01-25T07:47:59;2.85;;;0.45;;
20034;SDS011;10178;48.034;9.800;2024-01-25T07:50:24;2.95;;;0.88;;
20034;SDS011;10178;48.034;9.800;2024-01-25T07:52:50;2.03;;;0.55;;
20034;SDS011;10178;48.034;9.800;2024-01-25T07:55:16;0.65;;;0.50;;
20034;SDS011;10178;48.034;9.800;2024-01-25T07:57:42;5.80;;;0.70;;
20034;SDS011;10178;48.034;9.800;2024-01-25T08:00:08;2.22;;;0.60;;
20034;SDS011;10178;48.034;9.800;2024-01-25T08:02:35;4.38;;;0.80;;
20034;SDS011;10178;48.034;9.800;2024-01-25T08:05:01;1.65;;;0.68;;
20034;SDS011;10178;48.034;9.800;2024-01-25T08:07:27;3.47;;;1.55;;
20034;SDS011;10178;48.034;9.800;2024-01-25T08:09:53;3.47;;;0.80;;
20034;SDS011;10178;48.034;9.800;2024-01-25T08:12:23;2.72;;;0.70;;
20034;SDS011;10178;48.034;9.800;2024-01-25T08:14:51;2.83;;;0.82;;
20034;SDS011;10178;48.034;9.800;2024-01-25T08:17:17;4.35;;;0.73;;
20034;SDS011;10178;48.034;9.800;2024-01-25T08:19:43;2.38;;;0.60;;
20034;SDS011;10178;48.034;9.800;2024-01-25T08:22:08;2.63;;;0.60;;
20034;SDS011;10178;48.034;9.800;2024-01-25T08:24:35;5.57;;;0.90;;
20034;SDS011;10178;48.034;9.800;2024-01-25T08:27:00;4.75;;;0.80;;
20034;SDS011;10178;48.034;9.800;2024-01-25T08:29:26;5.47;;;1.00;;
20034;SDS011;10178;48.034;9.800;2024-01-25T08:31:52;3.90;;;0.90;;
20034;SDS011;10178;48.034;9.800;2024-01-25T08:34:17;3.83;;;0.77;;
20034;SDS011;10178;48.034;9.800;2024-01-25T08:36:43;4.60;;;0.70;;
20034;SDS011;10178;48.034;9.800;2024-01-25T08:39:09;4.43;;;0.80;;
20034;SDS011;10178;48.034;9.800;2024-01-25T08:41:34;3.85;;;1.05;;
20034;SDS011;10178;48.034;9.800;2024-01-25T08:44:00;2.70;;;1.30;;
20034;SDS011;10178;48.034;9.800;2024-01-25T08:46:26;3.70;;;0.90;;
20034;SDS011;10178;48.034;9.800;2024-01-25T08:48:51;4.65;;;0.80;;
20034;SDS011;10178;48.034;9.800;2024-01-25T08:51:17;2.97;;;0.90;;
20034;SDS011;10178;48.034;9.800;2024-01-25T08:53:43;3.13;;;1.02;;
20034;SDS011;10178;48.034;9.800;2024-01-25T08:56:09;1.55;;;0.70;;
20034;SDS011;10178;48.034;9.800;2024-01-25T08:58:34;0.90;;;0.68;;
20034;SDS011;10178;48.034;9.800;2024-01-25T09:01:00;1.27;;;0.60;;
20034;SDS011;10178;48.034;9.800;2024-01-25T09:03:26;2.97;;;0.90;;
20034;SDS011;10178;48.034;9.800;2024-01-25T09:05:51;3.75;;;0.85;;
20034;SDS011;10178;48.034;9.800;2024-01-25T09:08:17;1.67;;;0.65;;
20034;SDS011;10178;48.034;9.800;2024-01-25T09:10:43;4.07;;;0.70;;
20034;SDS011;10178;48.034;9.800;2024-01-25T09:13:09;4.25;;;0.68;;
20034;SDS011;10178;48.034;9.800;2024-01-25T09:15:35;4.85;;;0.85;;
20034;SDS011;10178;48.034;9.800;2024-01-25T09:18:01;2.53;;;1.40;;
20034;SDS011;10178;48.034;9.800;2024-01-25T09:20:27;1.90;;;0.70;;
20034;SDS011;10178;48.034;9.800;2024-01-25T09:22:52;2.88;;;1.10;;
20034;SDS011;10178;48.034;9.800;2024-01-25T09:25:21;2.50;;;0.90;;
20034;SDS011;10178;48.034;9.800;2024-01-25T09:27:48;5.45;;;0.85;;
20034;SDS011;10178;48.034;9.800;2024-01-25T09:30:14;2.17;;;0.87;;
20034;SDS011;10178;48.034;9.800;2024-01-25T09:32:40;0.95;;;0.50;;
20034;SDS011;10178;48.034;9.800;2024-01-25T09:35:06;2.78;;;0.77;;
20034;SDS011;10178;48.034;9.800;2024-01-25T09:37:33;2.10;;;0.50;;
20034;SDS011;10178;48.034;9.800;2024-01-25T09:39:58;2.05;;;0.80;;
20034;SDS011;10178;48.034;9.800;2024-01-25T09:42:24;1.83;;;0.63;;
20034;SDS011;10178;48.034;9.800;2024-01-25T09:44:50;0.63;;;0.55;;
20034;SDS011;10178;48.034;9.800;2024-01-25T09:47:19;0.40;;;0.40;;
20034;SDS011;10178;48.034;9.800;2024-01-25T09:49:46;2.90;;;0.77;;
20034;SDS011;10178;48.034;9.800;2024-01-25T09:52:12;3.47;;;0.70;;
20034;SDS011;10178;48.034;9.800;2024-01-25T09:54:39;1.27;;;0.77;;
20034;SDS011;10178;48.034;9.800;2024-01-25T09:57:15;1.17;;;0.57;;
20034;SDS011;10178;48.034;9.800;2024-01-25T09:59:42;2.00;;;0.70;;
20034;SDS011;10178;48.034;9.800;2024-01-25T10:02:09;1.48;;;0.60;;
20034;SDS011;10178;48.034;9.800;2024-01-25T10:04:35;2.00;;;0.60;;
20034;SDS011;10178;48.034;9.800;2024-01-25T10:07:01;3.58;;;0.60;;
20034;SDS011;10178;48.034;9.800;2024-01-25T10:09:26;2.60;;;0.70;;
20034;SDS011;10178;48.034;9.800;2024-01-25T10:11:52;0.60;;;0.40;;
20034;SDS011;10178;48.034;9.800;2024-01-25T10:14:18;1.40;;;0.70;;
20034;SDS011;10178;48.034;9.800;2024-01-25T10:16:44;1.00;;;0.68;;
20034;SDS011;10178;48.034;9.800;2024-01-25T10:19:10;1.45;;;0.60;;
20034;SDS011;10178;48.034;9.800;2024-01-25T10:21:37;1.60;;;0.50;;
20034;SDS011;10178;48.034;9.800;2024-01-25T10:24:03;2.33;;;0.65;;
20034;SDS011;10178;48.034;9.800;2024-01-25T10:26:31;3.45;;;1.00;;
20034;SDS011;10178;48.034;9.800;2024-01-25T10:28:56;1.10;;;0.65;;
20034;SDS011;10178;48.034;9.800;2024-01-25T10:31:23;3.40;;;1.17;;
20034;SDS011;10178;48.034;9.800;2024-01-25T10:33:52;2.88;;;0.85;;
20034;SDS011;10178;48.034;9.800;2024-01-25T10:36:19;5.03;;;0.82;;
20034;SDS011;10178;48.034;9.800;2024-01-25T10:38:46;3.45;;;0.85;;
20034;SDS011;10178;48.034;9.800;2024-01-25T10:41:13;1.83;;;0.77;;
20034;SDS011;10178;48.034;9.800;2024-01-25T10:43:40;2.97;;;1.00;;
20034;SDS011;10178;48.034;9.800;2024-01-25T10:46:06;1.60;;;0.70;;
20034;SDS011;10178;48.034;9.800;2024-01-25T10:48:33;1.52;;;0.70;;
20034;SDS011;10178;48.034;9.800;2024-01-25T10:51:00;3.30;;;0.85;;
20034;SDS011;10178;48.034;9.800;2024-01-25T10:53:32;2.90;;;0.90;;
20034;SDS011;10178;48.034;9.800;2024-01-25T10:55:59;4.68;;;1.20;;
20034;SDS011;10178;48.034;9.800;2024-01-25T10:58:33;3.28;;;0.90;;
20034;SDS011;10178;48.034;9.800;2024-01-25T11:01:00;3.13;;;1.27;;
20034;SDS011;10178;48.034;9.800;2024-01-25T11:03:26;1.48;;;0.90;;
20034;SDS011;10178;48.034;9.800;2024-01-25T11:06:05;6.47;;;1.05;;
20034;SDS011;10178;48.034;9.800;2024-01-25T11:08:38;3.10;;;1.02;;
20034;SDS011;10178;48.034;9.800;2024-01-25T11:11:08;3.75;;;0.90;;
20034;SDS011;10178;48.034;9.800;2024-01-25T11:13:37;7.03;;;0.98;;
20034;SDS011;10178;48.034;9.800;2024-01-25T11:16:17;3.30;;;0.77;;
20034;SDS011;10178;48.034;9.800;2024-01-25T11:18:53;4.53;;;0.95;;
20034;SDS011;10178;48.034;9.800;2024-01-25T11:21:26;2.05;;;1.00;;
20034;SDS011;10178;48.034;9.800;2024-01-25T11:24:15;1.38;;;0.80;;
20034;SDS011;10178;48.034;9.800;2024-01-25T11:26:45;1.83;;;0.77;;
20034;SDS011;10178;48.034;9.800;2024-01-25T11:29:15;5.13;;;0.80;;
20034;SDS011;10178;48.034;9.800;2024-01-25T11:31:43;3.60;;;0.82;;
20034;SDS011;10178;48.034;9.800;2024-01-25T11:34:09;4.60;;;0.80;;
20034;SDS011;10178;48.034;9.800;2024-01-25T11:36:36;2.75;;;0.85;;
20034;SDS011;10178;48.034;9.800;2024-01-25T11:39:03;3.15;;;0.95;;
20034;SDS011;10178;48.034;9.800;2024-01-25T11:41:30;3.78;;;1.05;;
20034;SDS011;10178;48.034;9.800;2024-01-25T11:43:56;3.38;;;0.77;;
20034;SDS011;10178;48.034;9.800;2024-01-25T11:46:22;5.30;;;1.05;;
20034;SDS011;10178;48.034;9.800;2024-01-25T11:48:48;6.05;;;0.98;;
20034;SDS011;10178;48.034;9.800;2024-01-25T11:51:14;3.03;;;1.02;;
20034;SDS011;10178;48.034;9.800;2024-01-25T11:53:40;1.75;;;0.88;;
20034;SDS011;10178;48.034;9.800;2024-01-25T11:56:06;4.78;;;1.10;;
20034;SDS011;10178;48.034;9.800;2024-01-25T11:58:35;3.42;;;0.80;;
20034;SDS011;10178;48.034;9.800;2024-01-25T12:01:03;4.28;;;0.98;;
20034;SDS011;10178;48.034;9.800;2024-01-25T12:03:32;1.52;;;0.60;;
20034;SDS011;10178;48.034;9.800;2024-01-25T12:06:04;2.20;;;0.70;;
20034;SDS011;10178;48.034;9.800;2024-01-25T12:08:33;3.88;;;1.08;;
20034;SDS011;10178;48.034;9.800;2024-01-25T12:11:06;4.22;;;0.70;;
20034;SDS011;10178;48.034;9.800;2024-01-25T12:13:33;3.80;;;1.00;;
20034;SDS011;10178;48.034;9.800;2024-01-25T12:16:00;3.53;;;0.88;;
20034;SDS011;10178;48.034;9.800;2024-01-25T12:18:26;2.83;;;0.70;;
20034;SDS011;10178;48.034;9.800;2024-01-25T12:20:53;3.88;;;0.73;;
20034;SDS011;10178;48.034;9.800;2024-01-25T12:23:19;2.75;;;0.77;;
20034;SDS011;10178;48.034;9.800;2024-01-25T12:25:45;3.63;;;0.77;;
20034;SDS011;10178;48.034;9.800;2024-01-25T12:28:10;2.10;;;0.60;;
20034;SDS011;10178;48.034;9.800;2024-01-25T12:30:36;3.45;;;0.90;;
20034;SDS011;10178;48.034;9.800;2024-01-25T12:33:02;4.32;;;1.27;;
20034;SDS011;10178;48.034;9.800;2024-01-25T12:35:28;3.92;;;0.90;;
20034;SDS011;10178;48.034;9.800;2024-01-25T12:37:54;3.92;;;1.20;;
20034;SDS011;10178;48.034;9.800;2024-01-25T12:40:20;5.88;;;1.25;;
20034;SDS011;10178;48.034;9.800;2024-01-25T12:42:45;3.33;;;0.90;;
20034;SDS011;10178;48.034;9.800;2024-01-25T12:45:11;5.22;;;0.90;;
20034;SDS011;10178;48.034;9.800;2024-01-25T12:47:37;4.50;;;0.90;;
20034;SDS011;10178;48.034;9.800;2024-01-25T12:50:02;3.20;;;0.82;;
20034;SDS011;10178;48.034;9.800;2024-01-25T12:52:29;3.72;;;0.77;;
20034;SDS011;10178;48.034;9.800;2024-01-25T12:54:54;3.55;;;1.35;;
20034;SDS011;10178;48.034;9.800;2024-01-25T12:57:21;3.42;;;1.00;;
20034;SDS011;10178;48.034;9.800;2024-01-25T12:59:47;3.40;;;0.90;;
20034;SDS011;10178;48.034;9.800;2024-01-25T13:02:12;1.63;;;0.80;;
20034;SDS011;10178;48.034;9.800;2024-01-25T13:04:38;2.03;;;1.10;;
20034;SDS011;10178;48.034;9.800;2024-01-25T13:07:04;6.57;;;0.88;;
20034;SDS011;10178;48.034;9.800;2024-01-25T13:09:29;1.40;;;0.75;;
20034;SDS011;10178;48.034;9.800;2024-01-25T13:11:58;3.05;;;0.80;;
20034;SDS011;10178;48.034;9.800;2024-01-25T13:14:24;3.67;;;1.08;;
20034;SDS011;10178;48.034;9.800;2024-01-25T13:16:50;5.25;;;1.10;;
20034;SDS011;10178;48.034;9.800;2024-01-25T13:19:16;4.95;;;1.25;;
20034;SDS011;10178;48.034;9.800;2024-01-25T13:21:41;4.72;;;1.15;;
20034;SDS011;10178;48.034;9.800;2024-01-25T13:24:07;1.85;;;0.77;;
20034;SDS011;10178;48.034;9.800;2024-01-25T13:26:34;4.57;;;1.10;;
20034;SDS011;10178;48.034;9.800;2024-01-25T13:29:00;8.45;;;1.00;;
20034;SDS011;10178;48.034;9.800;2024-01-25T13:31:26;2.90;;;1.00;;
20034;SDS011;10178;48.034;9.800;2024-01-25T13:33:52;5.80;;;0.77;;
20034;SDS011;10178;48.034;9.800;2024-01-25T13:36:17;4.95;;;1.00;;
20034;SDS011;10178;48.034;9.800;2024-01-25T13:38:43;4.63;;;0.77;;
20034;SDS011;10178;48.034;9.800;2024-01-25T13:41:09;4.47;;;1.00;;
20034;SDS011;10178;48.034;9.800;2024-01-25T13:43:34;4.32;;;1.15;;
20034;SDS011;10178;48.034;9.800;2024-01-25T13:46:00;2.63;;;0.80;;
20034;SDS011;10178;48.034;9.800;2024-01-25T13:48:26;32.05;;;17.00;;
20034;SDS011;10178;48.034;9.800;2024-01-25T13:50:51;19.25;;;9.48;;
20034;SDS011;10178;48.034;9.800;2024-01-25T13:53:17;25.38;;;12.95;;
20034;SDS011;10178;48.034;9.800;2024-01-25T13:55:43;17.33;;;8.27;;
20034;SDS011;10178;48.034;9.800;2024-01-25T13:58:09;20.35;;;11.73;;
20034;SDS011;10178;48.034;9.800;2024-01-25T14:00:35;14.25;;;6.53;;
20034;SDS011;10178;48.034;9.800;2024-01-25T14:03:00;20.60;;;9.45;;
20034;SDS011;10178;48.034;9.800;2024-01-25T14:05:26;19.83;;;10.75;;
20034;SDS011;10178;48.034;9.800;2024-01-25T14:07:52;18.10;;;10.18;;
20034;SDS011;10178;48.034;9.800;2024-01-25T14:10:18;10.65;;;6.32;;
20034;SDS011;10178;48.034;9.800;2024-01-25T14:12:45;3.35;;;2.03;;
20034;SDS011;10178;48.034;9.800;2024-01-25T14:15:11;7.82;;;4.38;;
20034;SDS011;10178;48.034;9.800;2024-01-25T14:17:37;13.68;;;7.22;;
20034;SDS011;10178;48.034;9.800;2024-01-25T14:20:12;2.50;;;0.80;;
20034;SDS011;10178;48.034;9.800;2024-01-25T14:22:38;4.50;;;2.00;;
20034;SDS011;10178;48.034;9.800;2024-01-25T14:25:03;4.78;;;2.42;;
20034;SDS011;10178;48.034;9.800;2024-01-25T14:27:30;11.70;;;5.93;;
20034;SDS011;10178;48.034;9.800;2024-01-25T14:29:55;12.48;;;5.70;;
20034;SDS011;10178;48.034;9.800;2024-01-25T14:32:21;2.88;;;2.42;;
20034;SDS011;10178;48.034;9.800;2024-01-25T14:34:48;9.23;;;5.13;;
20034;SDS011;10178;48.034;9.800;2024-01-25T14:37:13;13.85;;;5.35;;
20034;SDS011;10178;48.034;9.800;2024-01-25T14:39:39;8.13;;;4.63;;
20034;SDS011;10178;48.034;9.800;2024-01-25T14:42:11;6.03;;;4.05;;
20034;SDS011;10178;48.034;9.800;2024-01-25T14:44:37;1.52;;;1.27;;
20034;SDS011;10178;48.034;9.800;2024-01-25T14:47:03;3.55;;;2.40;;